Celina, Ohio
Current Conditions -  °F | °C
As of 5:33 AM on Friday 21 Nov 2014 (Local Time) from KAXV Reporting Station
Clear Clear  
Wind Chill:   Ceiling: Unl
Heat Index: 12°   Visibility: 10mi
Dew Point:   Wind: 5mph
Humidity: 79%   Direction: 270°W
Pressure: 30.38"   Gusts: NA
Location:  40.55°N, 84.57°W
Report Text: KAXV 211033Z AUTO 27004KT 10SM CLR M11/M14 A3038 RMK AO2
Loading
Personal Weather Stations






























Interactive Weather Map New forecast layout! Learn more

10-Day Weather Forecast

Advertisements
Track Severe Weather on mobile